Time;durP1;ratioP1;P1;durP2;ratioP2;P2;SDS_P1;SDS_P2;PMS_P1;PMS_P2;Temp;Humidity;BMP_temperature;BMP_pressure;BME280_temperature;BME280_humidity;BME280_pressure;Samples;Min_cycle;Max_cycle;Signal;HPM_P1;HPM_P2
2022/11/06 00:02:40;;;;;;;12.00;10.33;;;7.30;99.90;;;;;;5057318;28;20820;-75
2022/11/06 00:08:33;;;;;;;19.57;12.47;;;7.10;99.90;;;;;;5059443;28;20763;-74
2022/11/06 00:11:19;;;;;;;20.97;12.70;;;6.90;99.90;;;;;;5044269;28;20482;-74
2022/11/06 00:14:05;;;;;;;15.43;12.93;;;6.90;99.90;;;;;;5049340;28;21252;-74
2022/11/06 00:16:50;;;;;;;18.63;11.93;;;6.80;99.90;;;;;;5049892;28;20488;-75
2022/11/06 00:19:36;;;;;;;26.73;13.30;;;6.70;99.90;;;;;;5053008;28;20498;-74
2022/11/06 00:22:23;;;;;;;13.97;11.57;;;6.70;99.90;;;;;;5042221;28;20789;-74
2022/11/06 00:25:09;;;;;;;13.77;11.27;;;6.80;99.90;;;;;;5047873;28;20513;-75
2022/11/06 00:27:55;;;;;;;16.40;11.57;;;6.80;99.90;;;;;;5060784;28;20442;-75
2022/11/06 00:30:40;;;;;;;14.13;9.90;;;6.70;99.90;;;;;;5051132;28;20414;-75
2022/11/06 00:33:26;;;;;;;13.00;10.83;;;6.70;99.90;;;;;;5049998;28;20499;-75
2022/11/06 00:36:14;;;;;;;16.50;10.23;;;6.70;99.90;;;;;;5054071;28;20443;-75
2022/11/06 00:39:01;;;;;;;12.27;9.50;;;6.70;99.90;;;;;;5058717;28;20427;-74
2022/11/06 00:41:47;;;;;;;12.53;8.90;;;6.70;99.90;;;;;;5051268;28;20917;-75
2022/11/06 00:44:32;;;;;;;11.30;9.27;;;6.80;99.90;;;;;;5054289;28;20795;-75
2022/11/06 00:47:18;;;;;;;13.17;10.23;;;6.80;99.90;;;;;;5048332;28;20476;-74
2022/11/06 00:50:04;;;;;;;11.10;9.50;;;6.80;99.90;;;;;;5049510;28;20490;-75
2022/11/06 00:52:49;;;;;;;13.23;9.73;;;6.80;99.90;;;;;;5051965;28;20438;-73
2022/11/06 00:55:36;;;;;;;13.50;9.70;;;6.90;99.90;;;;;;5051688;28;20482;-75
2022/11/06 00:58:22;;;;;;;12.47;8.77;;;6.80;99.90;;;;;;5050585;28;20466;-75
2022/11/06 01:01:09;;;;;;;9.97;8.83;;;6.80;99.90;;;;;;5051054;28;20433;-75
2022/11/06 01:03:57;;;;;;;11.60;9.23;;;6.80;99.90;;;;;;5047623;28;20464;-74
2022/11/06 01:06:45;;;;;;;10.07;8.73;;;6.70;99.90;;;;;;5048929;28;20433;-75
2022/11/06 01:09:30;;;;;;;11.73;8.10;;;6.60;99.90;;;;;;5047497;28;20569;-75
2022/11/06 01:12:17;;;;;;;16.47;8.30;;;6.40;99.90;;;;;;5053416;28;20510;-75
2022/11/06 01:15:03;;;;;;;16.30;11.17;;;6.30;99.90;;;;;;5053341;28;20455;-75
2022/11/06 01:17:49;;;;;;;11.10;9.70;;;6.10;99.90;;;;;;5052833;28;20443;-73
2022/11/06 01:20:37;;;;;;;14.02;10.90;;;6.00;99.90;;;;;;5048817;28;20498;-75
2022/11/06 01:23:22;;;;;;;17.87;10.93;;;5.90;99.90;;;;;;5061530;28;20209;-73
2022/11/06 01:26:09;;;;;;;16.70;12.97;;;5.90;99.90;;;;;;5058304;28;20446;-74
2022/11/06 01:28:57;;;;;;;16.58;13.55;;;5.90;99.90;;;;;;5058605;28;20575;-74
2022/11/06 01:31:43;;;;;;;14.90;12.60;;;5.90;99.90;;;;;;5047655;28;20231;-75
2022/11/06 01:34:28;;;;;;;18.50;12.37;;;6.00;99.90;;;;;;5057093;28;20594;-75
2022/11/06 01:37:14;;;;;;;20.37;14.37;;;6.10;99.90;;;;;;5052317;28;20524;-75
2022/11/06 01:40:00;;;;;;;32.83;13.70;;;6.20;99.90;;;;;;5046768;28;20495;-75
2022/11/06 01:42:45;;;;;;;32.30;13.13;;;6.20;99.90;;;;;;5045635;28;20641;-75
2022/11/06 01:45:37;;;;;;;16.07;12.30;;;6.10;99.90;;;;;;5050179;28;20447;-75
2022/11/06 01:48:26;;;;;;;24.07;12.50;;;6.20;99.90;;;;;;5056204;28;20936;-75
2022/11/06 01:51:13;;;;;;;19.67;12.20;;;6.20;99.90;;;;;;5053831;28;20478;-74
2022/11/06 01:53:59;;;;;;;13.70;11.47;;;6.20;99.90;;;;;;5059127;28;20467;-75
2022/11/06 01:56:47;;;;;;;16.10;11.40;;;6.10;99.90;;;;;;5056360;28;20448;-74
2022/11/06 01:59:36;;;;;;;16.35;11.63;;;6.10;99.90;;;;;;5052808;28;20210;-75
2022/11/06 02:02:23;;;;;;;15.27;11.80;;;6.00;99.90;;;;;;5056901;28;20300;-75
2022/11/06 02:05:09;;;;;;;10.93;9.30;;;6.00;99.90;;;;;;5055176;28;20217;-75
2022/11/06 02:07:56;;;;;;;11.97;9.43;;;6.00;99.90;;;;;;5055642;28;20443;-75
2022/11/06 02:10:42;;;;;;;10.82;9.25;;;6.00;99.90;;;;;;5049095;28;20479;-75
2022/11/06 02:13:37;;;;;;;11.52;10.02;;;6.00;99.90;;;;;;5055680;28;20314;-75
2022/11/06 02:16:31;;;;;;;12.65;9.85;;;6.00;99.90;;;;;;5046470;28;20201;-75
2022/11/06 02:19:39;;;;;;;19.23;9.00;;;6.10;99.90;;;;;;5047641;28;20286;-73
2022/11/06 02:22:44;;;;;;;13.95;8.98;;;6.10;99.90;;;;;;5049837;28;20495;-74
2022/11/06 02:25:41;;;;;;;11.70;9.20;;;6.10;99.90;;;;;;5048555;28;20201;-74
2022/11/06 02:28:34;;;;;;;12.15;8.88;;;6.00;99.90;;;;;;5041025;28;20323;-74
2022/11/06 02:31:25;;;;;;;9.60;7.83;;;5.90;99.90;;;;;;5046748;28;20710;-74
2022/11/06 02:34:15;;;;;;;9.87;7.87;;;5.80;99.90;;;;;;5051175;28;20479;-74
2022/11/06 02:37:05;;;;;;;9.03;7.40;;;5.70;99.90;;;;;;5054713;28;20443;-74
2022/11/06 02:39:52;;;;;;;10.45;7.95;;;5.60;99.90;;;;;;5043359;28;20422;-74
2022/11/06 02:42:43;;;;;;;12.00;8.63;;;5.60;99.90;;;;;;5047028;28;20279;-74
2022/11/06 02:45:34;;;;;;;11.35;8.55;;;5.70;99.90;;;;;;5055156;28;20255;-74
2022/11/06 02:48:24;;;;;;;11.30;8.75;;;5.70;99.90;;;;;;5043763;28;20739;-74
2022/11/06 02:51:14;;;;;;;13.73;8.37;;;5.70;99.90;;;;;;5055080;28;20229;-74
2022/11/06 02:54:02;;;;;;;8.65;7.72;;;5.70;99.90;;;;;;5055287;28;20552;-74
2022/11/06 02:56:52;;;;;;;10.43;7.80;;;5.70;99.90;;;;;;5046661;28;20813;-74
2022/11/06 02:59:43;;;;;;;14.27;9.37;;;5.50;99.90;;;;;;5051457;28;20462;-74
2022/11/06 03:02:35;;;;;;;12.15;8.38;;;5.60;99.90;;;;;;5057322;28;20445;-74
2022/11/06 03:05:26;;;;;;;11.60;7.88;;;5.60;99.90;;;;;;5050361;28;20208;-74
2022/11/06 03:08:18;;;;;;;13.32;9.10;;;5.60;99.90;;;;;;5050731;28;20231;-74
2022/11/06 03:11:11;;;;;;;14.40;10.70;;;5.50;99.90;;;;;;5052258;28;20225;-75
2022/11/06 03:14:04;;;;;;;30.10;10.53;;;5.40;99.90;;;;;;5046004;28;20226;-74
2022/11/06 03:16:56;;;;;;;13.95;9.93;;;5.40;99.90;;;;;;5044520;28;20455;-74
2022/11/06 03:19:48;;;;;;;13.38;9.07;;;5.40;99.90;;;;;;5043684;28;20264;-74
2022/11/06 03:22:40;;;;;;;23.98;8.52;;;5.50;99.90;;;;;;5046853;28;20363;-73
2022/11/06 03:25:28;;;;;;;22.92;10.55;;;5.60;99.90;;;;;;5046618;28;20196;-74
2022/11/06 03:28:21;;;;;;;18.38;10.68;;;5.50;99.90;;;;;;5044662;28;20209;-74
2022/11/06 03:31:12;;;;;;;45.47;12.17;;;5.50;99.90;;;;;;5043124;28;20320;-74
2022/11/06 03:34:01;;;;;;;23.02;13.05;;;5.40;99.90;;;;;;5049172;28;20471;-74
2022/11/06 03:36:55;;;;;;;19.30;15.47;;;5.30;99.90;;;;;;5047797;28;20250;-74
2022/11/06 03:39:45;;;;;;;21.52;18.23;;;5.10;99.90;;;;;;5044924;28;20456;-74
2022/11/06 03:42:31;;;;;;;21.20;15.95;;;5.20;99.90;;;;;;5044936;28;20225;-74
2022/11/06 03:45:21;;;;;;;15.82;14.13;;;5.10;99.90;;;;;;5044149;28;20201;-74
2022/11/06 03:48:10;;;;;;;24.40;18.07;;;5.10;99.90;;;;;;5043480;28;20568;-74
2022/11/06 03:51:00;;;;;;;67.53;18.38;;;5.20;99.90;;;;;;5052111;28;20475;-74
2022/11/06 03:53:51;;;;;;;20.58;18.42;;;5.10;99.90;;;;;;5046689;28;20225;-74
2022/11/06 03:56:40;;;;;;;41.65;18.83;;;5.00;99.90;;;;;;5043547;28;20682;-74
2022/11/06 03:59:32;;;;;;;90.60;18.20;;;4.90;99.90;;;;;;5047904;28;20278;-74
2022/11/06 04:02:19;;;;;;;34.22;16.50;;;4.80;99.90;;;;;;5052818;28;20549;-74
2022/11/06 04:05:10;;;;;;;16.67;14.98;;;4.60;99.90;;;;;;5049213;28;20193;-74
2022/11/06 04:14:10;;;;;;;15.40;13.65;;;4.50;99.90;;;;;;5045947;28;20270;-75
2022/11/06 04:17:00;;;;;;;15.45;13.95;;;4.70;99.90;;;;;;5048793;28;20208;-74
2022/11/06 04:19:52;;;;;;;15.15;13.55;;;4.80;99.90;;;;;;5054332;28;20246;-74
2022/11/06 04:22:46;;;;;;;17.48;13.65;;;4.90;99.90;;;;;;5051740;28;20229;-74
2022/11/06 04:28:52;;;;;;;15.73;12.10;;;5.00;99.90;;;;;;5043514;28;20209;-74
2022/11/06 04:31:46;;;;;;;13.00;11.70;;;5.10;99.90;;;;;;5048586;28;20240;-74
2022/11/06 04:34:42;;;;;;;12.63;11.23;;;5.10;99.90;;;;;;5044854;28;20221;-74
2022/11/06 04:37:36;;;;;;;17.00;11.15;;;5.00;99.90;;;;;;5045184;28;20570;-74
2022/11/06 04:40:30;;;;;;;12.45;10.60;;;4.90;99.90;;;;;;5048285;28;20271;-74
2022/11/06 04:43:25;;;;;;;14.10;11.30;;;4.90;99.90;;;;;;5055946;28;20197;-74
2022/11/06 04:46:18;;;;;;;28.90;12.95;;;4.90;99.90;;;;;;5047303;28;20205;-74
2022/11/06 04:49:06;;;;;;;31.55;11.48;;;4.70;99.90;;;;;;5043621;28;20300;-74
2022/11/06 04:51:52;;;;;;;28.08;11.27;;;4.50;99.90;;;;;;5044740;28;20216;-74
2022/11/06 04:54:38;;;;;;;11.35;10.15;;;4.30;99.90;;;;;;5044559;28;20314;-74
2022/11/06 04:57:24;;;;;;;11.15;9.95;;;4.40;99.90;;;;;;5038092;28;20235;-74
2022/11/06 05:00:13;;;;;;;14.55;10.52;;;4.50;99.90;;;;;;5047340;28;20216;-74
2022/11/06 05:03:00;;;;;;;11.57;10.30;;;4.40;99.90;;;;;;5046336;28;20246;-74
2022/11/06 05:05:45;;;;;;;14.30;9.63;;;4.60;99.90;;;;;;5044928;28;20395;-74
2022/11/06 05:08:31;;;;;;;11.85;9.75;;;4.70;99.90;;;;;;5042191;28;20576;-74
2022/11/06 05:11:17;;;;;;;11.27;9.70;;;4.70;99.90;;;;;;5049557;28;20229;-74
2022/11/06 05:14:03;;;;;;;10.90;9.15;;;4.60;99.90;;;;;;5052387;28;20237;-74
2022/11/06 05:16:48;;;;;;;22.08;9.75;;;4.60;99.90;;;;;;5050018;28;20216;-74
2022/11/06 05:19:35;;;;;;;10.95;9.70;;;4.50;99.90;;;;;;5047096;28;20333;-74
2022/11/06 05:25:24;;;;;;;13.40;11.85;;;4.60;99.90;;;;;;5046941;28;20192;-74
2022/11/06 05:28:10;;;;;;;16.58;11.80;;;4.70;99.90;;;;;;5048870;28;20220;-74
2022/11/06 05:30:55;;;;;;;13.48;11.40;;;4.80;99.90;;;;;;5055064;28;20228;-74
2022/11/06 05:33:41;;;;;;;25.95;12.55;;;4.80;99.90;;;;;;5054201;28;20274;-74
2022/11/06 05:36:28;;;;;;;29.13;11.50;;;4.80;99.90;;;;;;5047737;28;20474;-75
2022/11/06 05:39:14;;;;;;;24.40;11.50;;;4.80;99.90;;;;;;5044593;28;20652;-74
2022/11/06 05:41:59;;;;;;;12.90;11.25;;;4.80;99.90;;;;;;5045017;28;20224;-74
2022/11/06 05:44:45;;;;;;;12.55;10.80;;;4.60;99.90;;;;;;5049431;28;20251;-74
2022/11/06 05:47:31;;;;;;;14.55;12.27;;;4.50;99.90;;;;;;5044443;28;20205;-74
2022/11/06 05:50:16;;;;;;;13.30;11.70;;;4.50;99.90;;;;;;5043898;28;20676;-74
2022/11/06 05:53:04;;;;;;;17.70;11.50;;;4.40;99.90;;;;;;5057629;28;20208;-74
2022/11/06 05:55:49;;;;;;;20.13;12.77;;;4.20;99.90;;;;;;5043395;28;20728;-74
2022/11/06 05:58:35;;;;;;;18.15;15.50;;;4.10;99.90;;;;;;5049018;28;20701;-74
2022/11/06 06:01:20;;;;;;;15.88;14.25;;;4.00;99.90;;;;;;5044349;28;20714;-74
2022/11/06 06:04:06;;;;;;;19.15;12.68;;;4.10;99.90;;;;;;5051082;28;20212;-74
2022/11/06 06:06:52;;;;;;;13.75;12.20;;;4.20;99.90;;;;;;5044307;28;20209;-74
2022/11/06 06:09:39;;;;;;;13.77;12.38;;;4.30;99.90;;;;;;5044055;28;20208;-74
2022/11/06 06:12:25;;;;;;;14.50;13.10;;;4.40;99.90;;;;;;5045667;28;20225;-74
2022/11/06 06:15:13;;;;;;;13.48;12.07;;;4.30;99.90;;;;;;5051131;28;20709;-74
2022/11/06 06:17:59;;;;;;;13.93;12.50;;;4.40;99.90;;;;;;5050285;28;20205;-74
2022/11/06 06:20:45;;;;;;;13.63;12.23;;;4.40;99.90;;;;;;5054335;28;20225;-74
2022/11/06 06:23:30;;;;;;;12.02;10.60;;;4.50;99.90;;;;;;5052407;28;20666;-74
2022/11/06 06:26:17;;;;;;;12.45;11.13;;;4.60;99.90;;;;;;5040138;28;20769;-74
2022/11/06 06:29:04;;;;;;;13.45;10.23;;;4.60;99.90;;;;;;5047541;28;20213;-74
2022/11/06 06:31:49;;;;;;;10.40;9.30;;;4.50;99.90;;;;;;5048083;28;20245;-74
2022/11/06 06:34:35;;;;;;;13.80;11.00;;;4.50;99.90;;;;;;5049435;28;20327;-74
2022/11/06 06:37:20;;;;;;;10.45;9.45;;;4.50;99.90;;;;;;5042145;28;20728;-74
2022/11/06 06:40:07;;;;;;;12.60;11.27;;;4.60;99.90;;;;;;5054402;28;20204;-74
2022/11/06 06:42:57;;;;;;;11.27;9.93;;;4.50;99.90;;;;;;5054927;28;20217;-74
2022/11/06 06:45:43;;;;;;;10.68;8.98;;;4.40;99.90;;;;;;5046328;28;20209;-74
2022/11/06 06:48:29;;;;;;;15.68;9.07;;;4.30;99.90;;;;;;5054627;28;20720;-74
2022/11/06 06:51:14;;;;;;;43.50;10.23;;;4.40;99.90;;;;;;5058448;28;20223;-74
2022/11/06 06:54:00;;;;;;;62.17;29.48;;;4.40;99.90;;;;;;5057213;28;20849;-74
2022/11/06 06:56:47;;;;;;;155.80;24.80;;;4.30;99.90;;;;;;5041586;28;20698;-74
2022/11/06 06:59:34;;;;;;;134.50;20.85;;;4.20;99.90;;;;;;5046549;28;20209;-74
2022/11/06 07:02:19;;;;;;;33.53;12.20;;;4.10;99.90;;;;;;5053608;28;20223;-74
2022/11/06 07:05:05;;;;;;;15.35;11.40;;;4.10;99.90;;;;;;5051924;28;20201;-74
2022/11/06 07:07:51;;;;;;;16.00;11.38;;;4.00;99.90;;;;;;5046014;28;20216;-74
2022/11/06 07:10:37;;;;;;;30.52;13.40;;;4.10;99.90;;;;;;5048737;28;20208;-73
2022/11/06 07:13:22;;;;;;;36.50;20.38;;;4.20;99.90;;;;;;5049072;28;20684;-74
2022/11/06 07:16:11;;;;;;;23.10;13.65;;;4.10;99.90;;;;;;5050233;28;20242;-74
2022/11/06 07:18:56;;;;;;;11.02;8.50;;;4.20;99.90;;;;;;5057836;28;20212;-74
2022/11/06 07:21:42;;;;;;;11.35;9.20;;;4.10;99.90;;;;;;5046529;28;20596;-73
2022/11/06 07:24:27;;;;;;;10.23;9.18;;;4.10;99.90;;;;;;5048693;28;20197;-74
2022/11/06 07:27:13;;;;;;;9.73;8.18;;;4.20;99.90;;;;;;5047656;28;20229;-74
2022/11/06 07:29:59;;;;;;;7.88;7.07;;;4.30;99.90;;;;;;5047692;28;20216;-74
2022/11/06 07:32:46;;;;;;;9.15;7.82;;;4.30;99.90;;;;;;5044457;28;20239;-74
2022/11/06 07:35:33;;;;;;;7.60;6.85;;;4.40;99.90;;;;;;5045575;28;20780;-75
2022/11/06 07:38:18;;;;;;;7.85;7.05;;;4.50;99.90;;;;;;5043466;28;20204;-75
2022/11/06 07:41:05;;;;;;;10.30;6.90;;;4.60;99.90;;;;;;5049498;28;20224;-74
2022/11/06 07:43:50;;;;;;;12.25;8.80;;;4.70;99.90;;;;;;5054146;28;20573;-74
2022/11/06 07:46:36;;;;;;;17.25;10.77;;;4.70;99.90;;;;;;5053953;28;20290;-74
2022/11/06 07:49:23;;;;;;;11.93;9.20;;;4.60;99.90;;;;;;5047280;28;20205;-74
2022/11/06 07:52:09;;;;;;;12.65;10.25;;;4.70;99.90;;;;;;5054229;28;20756;-74
2022/11/06 07:54:54;;;;;;;11.93;8.55;;;4.70;99.90;;;;;;5057290;28;20725;-74
2022/11/06 07:57:40;;;;;;;11.52;8.23;;;4.70;99.90;;;;;;5043030;28;20213;-74
2022/11/06 08:00:26;;;;;;;12.90;9.48;;;4.60;99.90;;;;;;5048348;28;20559;-74
2022/11/06 08:03:12;;;;;;;22.55;14.20;;;4.70;99.90;;;;;;5051392;28;20569;-74
2022/11/06 08:06:02;;;;;;;18.03;12.50;;;4.70;99.90;;;;;;5049929;28;20246;-74
2022/11/06 08:08:48;;;;;;;19.30;13.25;;;4.80;99.90;;;;;;5051585;28;20447;-74
2022/11/06 08:11:33;;;;;;;13.48;11.88;;;4.80;99.90;;;;;;5049674;28;20220;-74
2022/11/06 08:14:19;;;;;;;20.83;11.38;;;4.90;99.90;;;;;;5047556;28;20220;-74
2022/11/06 08:17:04;;;;;;;15.18;10.88;;;5.00;99.90;;;;;;5054825;28;20208;-74
2022/11/06 08:19:50;;;;;;;13.20;9.33;;;5.10;99.90;;;;;;5060154;28;20223;-74
2022/11/06 08:22:37;;;;;;;13.10;9.10;;;5.20;99.90;;;;;;5066204;22;20464;-88
2022/11/06 08:25:23;;;;;;;14.30;10.52;;;5.20;99.90;;;;;;5066041;28;21029;-87
2022/11/06 08:28:09;;;;;;;17.25;12.13;;;5.30;99.90;;;;;;5071206;28;20266;-87
2022/11/06 08:30:55;;;;;;;14.35;11.43;;;5.40;99.90;;;;;;5064922;28;20293;-87
2022/11/06 08:33:42;;;;;;;16.83;11.15;;;5.50;99.90;;;;;;5066238;28;20207;-87
2022/11/06 08:36:28;;;;;;;14.57;10.40;;;5.70;99.90;;;;;;5067649;28;20563;-88
2022/11/06 08:39:16;;;;;;;15.57;10.25;;;6.00;99.90;;;;;;5077826;28;20434;-87
2022/11/06 08:42:03;;;;;;;12.13;9.30;;;6.10;99.90;;;;;;5069665;28;20864;-86
2022/11/06 08:44:48;;;;;;;12.80;10.00;;;6.20;99.90;;;;;;5068719;28;20441;-88
2022/11/06 08:47:34;;;;;;;15.70;9.37;;;6.30;99.90;;;;;;5070225;28;20573;-87
2022/11/06 08:50:20;;;;;;;14.03;10.20;;;6.50;99.90;;;;;;5063858;28;20454;-89
2022/11/06 08:53:06;;;;;;;12.75;8.63;;;6.50;99.90;;;;;;5071473;28;20564;-87
2022/11/06 08:55:53;;;;;;;12.53;9.93;;;6.60;99.90;;;;;;5073119;28;20227;-87
2022/11/06 08:58:40;;;;;;;13.30;9.00;;;6.80;99.90;;;;;;5074664;28;20461;-87
2022/11/06 09:01:25;;;;;;;12.33;11.03;;;6.90;99.90;;;;;;5066585;28;21057;-88
2022/11/06 09:04:11;;;;;;;10.90;9.80;;;7.00;99.90;;;;;;5077474;28;20412;-88
2022/11/06 09:06:57;;;;;;;12.37;10.10;;;7.10;99.90;;;;;;5079744;28;20607;-87
2022/11/06 09:09:43;;;;;;;12.07;9.40;;;7.20;99.90;;;;;;5069122;28;20805;-87
2022/11/06 09:12:30;;;;;;;12.03;10.43;;;7.20;99.90;;;;;;5069685;28;20549;-87
2022/11/06 09:15:15;;;;;;;15.27;11.97;;;7.40;99.90;;;;;;5074352;28;20470;-86
2022/11/06 09:18:02;;;;;;;16.33;10.93;;;7.50;99.90;;;;;;5072131;28;20404;-87
2022/11/06 09:20:47;;;;;;;12.43;10.50;;;7.70;99.90;;;;;;5070819;28;20471;-87
2022/11/06 09:23:33;;;;;;;17.00;12.27;;;7.80;99.90;;;;;;5070911;28;20422;-87
2022/11/06 09:26:18;;;;;;;11.97;9.70;;;7.80;99.90;;;;;;5071702;28;20981;-87
2022/11/06 09:29:05;;;;;;;14.07;11.00;;;8.00;99.90;;;;;;5072233;28;20442;-88
2022/11/06 09:31:52;;;;;;;11.10;9.10;;;8.20;99.90;;;;;;5073022;28;20436;-85
2022/11/06 09:34:38;;;;;;;13.30;9.90;;;8.50;99.90;;;;;;5075446;28;20465;-87
2022/11/06 09:37:24;;;;;;;11.70;9.87;;;8.70;99.90;;;;;;5076685;28;20455;-87
2022/11/06 09:40:18;;;;;;;13.70;8.63;;;9.00;99.90;;;;;;5073665;28;20409;-87
2022/11/06 09:43:16;;;;;;;10.60;8.80;;;9.10;99.90;;;;;;5074557;28;20419;-87
2022/11/06 09:46:11;;;;;;;10.67;8.20;;;9.20;99.90;;;;;;5076995;28;20409;-90
2022/11/06 09:49:01;;;;;;;8.90;7.37;;;9.40;99.90;;;;;;5085194;28;20417;-85
2022/11/06 09:51:52;;;;;;;7.57;6.70;;;9.60;99.90;;;;;;5065670;28;20513;-88
2022/11/06 09:54:42;;;;;;;7.10;6.33;;;9.70;99.90;;;;;;5070748;28;20471;-87
2022/11/06 09:57:34;;;;;;;8.40;5.83;;;9.90;99.90;;;;;;5066731;28;20447;-87
2022/11/06 10:00:19;;;;;;;8.27;6.83;;;10.00;99.90;;;;;;5073418;28;20803;-85
2022/11/06 10:03:16;;;;;;;10.93;6.77;;;10.00;99.90;;;;;;5078694;28;20418;-85
2022/11/06 10:06:02;;;;;;;13.00;7.00;;;10.00;99.90;;;;;;5081184;28;20396;-87
2022/11/06 10:08:47;;;;;;;9.43;7.10;;;9.90;99.90;;;;;;5087388;28;20450;-87
2022/11/06 10:11:51;;;;;;;10.13;6.43;;;9.90;99.90;;;;;;5090889;22;21057;-78
2022/11/06 10:14:48;;;;;;;7.70;6.80;;;10.00;99.90;;;;;;5078177;28;20408;-78
2022/11/06 10:17:46;;;;;;;13.30;6.80;;;10.00;99.90;;;;;;5088587;28;20475;-81
2022/11/06 10:20:42;;;;;;;9.40;6.57;;;10.10;99.90;;;;;;5068304;28;20476;-78
2022/11/06 10:23:38;;;;;;;11.03;7.13;;;10.10;99.90;;;;;;5065047;28;20428;-77
2022/11/06 10:26:31;;;;;;;11.90;6.83;;;10.10;99.90;;;;;;5086895;22;20513;-73
2022/11/06 10:29:33;;;;;;;8.30;6.60;;;10.20;99.90;;;;;;5069952;28;20425;-74
2022/11/06 10:32:34;;;;;;;8.43;6.40;;;10.40;99.90;;;;;;5065198;28;20442;-73
2022/11/06 10:35:23;;;;;;;7.90;6.30;;;10.60;99.90;;;;;;5070125;28;20473;-74
2022/11/06 10:38:13;;;;;;;10.33;6.67;;;10.60;99.90;;;;;;5070835;28;20471;-74
2022/11/06 10:41:01;;;;;;;8.80;6.67;;;10.70;99.90;;;;;;5073472;28;20437;-73
2022/11/06 10:43:51;;;;;;;11.97;7.53;;;10.80;99.90;;;;;;5062509;28;20470;-73
2022/11/06 10:46:39;;;;;;;11.00;7.07;;;10.70;99.90;;;;;;5073274;28;23045;-73
2022/11/06 10:49:35;;;;;;;8.47;6.40;;;10.70;99.90;;;;;;5069428;28;22173;-74
2022/11/06 10:52:46;;;;;;;7.50;6.00;;;10.80;99.90;;;;;;5064477;28;20432;-73
2022/11/06 10:55:48;;;;;;;10.43;6.27;;;10.80;99.90;;;;;;5067647;28;21056;-74
2022/11/06 10:58:34;;;;;;;7.00;5.33;;;10.80;99.90;;;;;;5069140;28;21048;-73
2022/11/06 11:01:19;;;;;;;9.80;6.03;;;10.90;99.90;;;;;;5061932;28;20488;-75
2022/11/06 11:04:05;;;;;;;6.87;5.30;;;10.90;99.90;;;;;;5058836;28;20446;-73
2022/11/06 11:06:50;;;;;;;6.90;5.10;;;11.00;99.90;;;;;;5074450;28;20434;-74
2022/11/06 11:09:36;;;;;;;7.33;5.40;;;11.10;99.90;;;;;;5079113;28;20404;-74
2022/11/06 11:12:26;;;;;;;8.67;5.37;;;11.10;99.90;;;;;;5075058;28;20433;-74
2022/11/06 11:15:16;;;;;;;7.90;5.20;;;11.10;99.90;;;;;;5070242;28;20436;-74
2022/11/06 11:18:15;;;;;;;6.83;5.57;;;11.10;99.90;;;;;;5081412;28;20426;-74
2022/11/06 11:21:14;;;;;;;8.50;5.57;;;11.10;99.90;;;;;;5086178;28;20435;-74
2022/11/06 11:24:08;;;;;;;10.27;5.17;;;11.20;99.90;;;;;;5073549;28;20442;-74
2022/11/06 11:26:58;;;;;;;5.43;4.80;;;11.20;99.90;;;;;;5070522;28;20412;-74
2022/11/06 11:29:48;;;;;;;5.87;4.20;;;11.20;99.90;;;;;;5083929;28;20921;-74
2022/11/06 11:32:34;;;;;;;4.57;3.77;;;11.40;99.90;;;;;;5076348;28;20408;-74
2022/11/06 11:35:21;;;;;;;4.80;3.83;;;11.40;99.90;;;;;;5077149;28;20838;-74
2022/11/06 11:38:11;;;;;;;4.77;3.13;;;11.50;99.90;;;;;;5087187;28;20412;-73
2022/11/06 11:41:07;;;;;;;5.27;3.17;;;11.60;99.90;;;;;;5081087;28;21045;-74
2022/11/06 11:44:04;;;;;;;4.20;2.90;;;11.70;99.90;;;;;;5068388;28;20438;-74
2022/11/06 11:46:53;;;;;;;6.13;3.57;;;11.80;99.90;;;;;;5083073;28;20430;-74
2022/11/06 11:49:39;;;;;;;4.00;3.10;;;11.90;99.90;;;;;;5087939;28;20794;-74
2022/11/06 11:52:24;;;;;;;3.70;3.00;;;12.00;99.90;;;;;;5085236;28;20422;-74
2022/11/06 11:55:16;;;;;;;5.67;2.93;;;12.20;99.90;;;;;;5073830;28;20444;-73
2022/11/06 11:58:02;;;;;;;16.83;2.87;;;12.30;99.90;;;;;;5076872;28;20467;-74
2022/11/06 12:00:53;;;;;;;5.20;3.10;;;12.50;99.90;;;;;;5084954;28;20471;-74
2022/11/06 12:03:43;;;;;;;3.47;2.80;;;12.60;99.90;;;;;;5069071;28;20449;-74
2022/11/06 12:06:28;;;;;;;4.07;2.67;;;12.60;99.90;;;;;;5082593;28;20421;-74
2022/11/06 12:09:14;;;;;;;3.50;2.40;;;12.70;99.90;;;;;;5079095;28;20455;-74
2022/11/06 12:12:01;;;;;;;4.87;2.40;;;12.80;99.90;;;;;;5078844;28;20957;-74
2022/11/06 12:14:47;;;;;;;3.63;2.43;;;12.90;99.90;;;;;;5080316;28;20454;-74
2022/11/06 12:17:36;;;;;;;3.53;2.47;;;13.00;99.90;;;;;;5079940;28;20396;-74
2022/11/06 12:20:26;;;;;;;3.90;2.53;;;13.10;99.90;;;;;;5066887;28;20843;-74
2022/11/06 12:23:18;;;;;;;3.60;2.23;;;13.20;99.90;;;;;;5084131;28;20426;-74
2022/11/06 12:26:09;;;;;;;3.30;2.47;;;13.20;99.90;;;;;;5067793;28;20503;-74
2022/11/06 12:28:57;;;;;;;4.87;2.90;;;13.10;99.90;;;;;;5080732;28;20406;-74
2022/11/06 12:31:48;;;;;;;3.73;2.30;;;13.10;99.90;;;;;;5081937;28;20753;-74
2022/11/06 12:34:36;;;;;;;4.23;2.43;;;13.10;99.90;;;;;;5081950;28;20982;-74
2022/11/06 12:37:29;;;;;;;5.00;2.20;;;13.00;99.90;;;;;;5093687;28;20815;-73
2022/11/06 12:40:20;;;;;;;3.93;2.63;;;13.00;99.90;;;;;;5069317;28;20729;-74
2022/11/06 12:43:28;;;;;;;3.87;2.63;;;13.00;99.90;;;;;;5080497;28;20478;-74
2022/11/06 12:46:38;;;;;;;3.33;2.37;;;12.90;99.90;;;;;;5086462;28;20412;-74
2022/11/06 12:49:50;;;;;;;4.37;2.87;;;12.90;99.90;;;;;;5072935;28;20425;-73
2022/11/06 12:52:49;;;;;;;4.13;2.40;;;12.90;99.90;;;;;;5082403;28;20401;-73
2022/11/06 12:55:40;;;;;;;4.00;2.27;;;13.00;99.90;;;;;;5085142;28;20440;-74
2022/11/06 12:58:51;;;;;;;4.10;2.83;;;13.10;99.90;;;;;;5075142;28;20413;-74
2022/11/06 13:01:58;;;;;;;5.10;3.17;;;13.20;99.90;;;;;;5068530;28;20426;-74
2022/11/06 13:04:52;;;;;;;4.23;2.53;;;13.20;99.90;;;;;;5072164;28;20445;-72
2022/11/06 13:07:53;;;;;;;3.20;2.20;;;13.20;99.90;;;;;;5083260;28;20407;-73
2022/11/06 13:10:49;;;;;;;4.40;2.70;;;13.20;99.90;;;;;;5080579;28;20499;-72
2022/11/06 13:13:44;;;;;;;4.70;2.60;;;13.10;99.90;;;;;;5072988;28;20490;-73
2022/11/06 13:16:36;;;;;;;5.73;3.20;;;13.00;99.90;;;;;;5086563;28;20560;-73
2022/11/06 13:19:29;;;;;;;4.63;2.97;;;12.90;99.90;;;;;;5077186;28;20421;-75
2022/11/06 13:22:25;;;;;;;4.30;2.33;;;12.80;99.90;;;;;;5070347;28;20475;-75
2022/11/06 13:25:19;;;;;;;4.30;2.50;;;12.80;99.90;;;;;;5073164;28;20454;-75
2022/11/06 13:28:24;;;;;;;7.50;3.30;;;12.60;99.90;;;;;;5070859;28;20919;-74
2022/11/06 13:31:13;;;;;;;22.27;7.23;;;12.50;99.90;;;;;;5073810;28;20449;-74
2022/11/06 13:34:01;;;;;;;7.03;2.80;;;12.50;99.90;;;;;;5067667;28;20449;-75
2022/11/06 13:36:48;;;;;;;2.93;2.40;;;12.40;99.90;;;;;;5076477;28;20474;-74
2022/11/06 13:39:38;;;;;;;6.30;2.87;;;12.30;99.90;;;;;;5070822;28;20400;-75
2022/11/06 13:42:33;;;;;;;5.57;2.50;;;12.30;99.90;;;;;;5076309;28;20550;-75
2022/11/06 13:45:20;;;;;;;11.20;2.50;;;12.30;99.90;;;;;;5072312;28;20425;-73
2022/11/06 13:48:23;;;;;;;4.53;2.10;;;12.20;99.90;;;;;;5075935;28;20546;-73
2022/11/06 13:51:16;;;;;;;4.50;2.70;;;12.10;99.90;;;;;;5076922;28;20468;-73
2022/11/06 13:54:07;;;;;;;5.07;2.60;;;12.10;99.90;;;;;;5069461;28;20421;-74
2022/11/06 13:57:08;;;;;;;4.37;3.13;;;12.10;99.90;;;;;;5067803;28;21093;-74
2022/11/06 14:00:08;;;;;;;3.57;2.70;;;12.10;99.90;;;;;;5074402;28;20433;-74
2022/11/06 14:03:38;;;;;;;4.80;2.90;;;12.00;99.90;;;;;;5071251;28;20959;-74
2022/11/06 14:06:25;;;;;;;5.33;3.00;;;11.90;99.90;;;;;;5073505;28;20454;-74
2022/11/06 14:09:16;;;;;;;5.03;3.20;;;11.90;99.90;;;;;;5076498;28;20427;-73
2022/11/06 14:12:04;;;;;;;5.70;2.87;;;11.90;99.90;;;;;;5066827;28;20426;-73
2022/11/06 14:14:55;;;;;;;6.80;2.80;;;11.90;99.90;;;;;;5072072;28;20524;-73
2022/11/06 14:17:43;;;;;;;4.07;2.97;;;11.90;99.90;;;;;;5069716;28;20474;-73
2022/11/06 14:20:32;;;;;;;4.37;2.40;;;11.90;99.90;;;;;;5071628;28;20426;-73
2022/11/06 14:23:46;;;;;;;5.30;3.03;;;11.80;99.90;;;;;;5070336;28;20447;-73
2022/11/06 14:26:39;;;;;;;4.63;3.40;;;11.70;99.90;;;;;;5064163;28;20470;-74
2022/11/06 14:29:59;;;;;;;5.30;2.80;;;11.70;99.90;;;;;;5068378;28;20568;-75
2022/11/06 14:32:48;;;;;;;6.47;2.90;;;11.60;99.90;;;;;;5059523;28;20505;-74
2022/11/06 14:35:49;;;;;;;4.73;3.20;;;11.60;99.90;;;;;;5067126;28;20598;-74
2022/11/06 14:38:39;;;;;;;7.43;2.90;;;11.60;99.90;;;;;;5069159;28;20424;-74
2022/11/06 14:41:54;;;;;;;8.13;3.80;;;11.60;99.90;;;;;;5072804;28;20441;-74
2022/11/06 14:44:47;;;;;;;3.83;2.90;;;11.50;99.90;;;;;;5068530;28;20756;-75
2022/11/06 14:47:35;;;;;;;3.20;2.57;;;11.50;99.90;;;;;;5064761;28;20463;-73
2022/11/06 14:50:29;;;;;;;7.27;3.50;;;11.50;99.90;;;;;;5064278;28;20523;-73
2022/11/06 14:53:23;;;;;;;5.90;3.10;;;11.50;99.90;;;;;;5067553;28;20450;-73
2022/11/06 14:56:10;;;;;;;7.03;3.57;;;11.50;99.90;;;;;;5077280;28;20482;-73